sensor_id;sensor_type;location;lat;lon;timestamp;temperature;humidity
56771;DHT22;42641;59.794;17.616;2024-03-02T00:01:25;5.80;99.90
56771;DHT22;42641;59.794;17.616;2024-03-02T00:03:51;5.90;99.90
56771;DHT22;42641;59.794;17.616;2024-03-02T00:06:20;5.90;99.90
56771;DHT22;42641;59.794;17.616;2024-03-02T00:08:47;5.90;99.90
56771;DHT22;42641;59.794;17.616;2024-03-02T00:11:14;5.90;99.90
56771;DHT22;42641;59.794;17.616;2024-03-02T00:13:42;5.90;99.90
56771;DHT22;42641;59.794;17.616;2024-03-02T00:16:08;5.90;99.90
56771;DHT22;42641;59.794;17.616;2024-03-02T00:18:35;5.90;99.90
56771;DHT22;42641;59.794;17.616;2024-03-02T00:21:03;6.00;99.90
56771;DHT22;42641;59.794;17.616;2024-03-02T00:23:30;6.00;99.90
56771;DHT22;42641;59.794;17.616;2024-03-02T00:25:57;6.00;99.90
56771;DHT22;42641;59.794;17.616;2024-03-02T00:28:26;6.10;99.90
56771;DHT22;42641;59.794;17.616;2024-03-02T00:31:05;6.00;99.90
56771;DHT22;42641;59.794;17.616;2024-03-02T00:33:39;6.00;99.90
56771;DHT22;42641;59.794;17.616;2024-03-02T00:36:07;6.00;99.90
56771;DHT22;42641;59.794;17.616;2024-03-02T00:38:35;6.00;99.90
56771;DHT22;42641;59.794;17.616;2024-03-02T00:41:19;6.00;99.90
56771;DHT22;42641;59.794;17.616;2024-03-02T00:44:05;6.10;99.90
56771;DHT22;42641;59.794;17.616;2024-03-02T00:46:37;6.10;99.90
56771;DHT22;42641;59.794;17.616;2024-03-02T00:49:25;6.10;99.90
56771;DHT22;42641;59.794;17.616;2024-03-02T00:51:53;6.10;99.90
56771;DHT22;42641;59.794;17.616;2024-03-02T00:54:21;6.20;99.90
56771;DHT22;42641;59.794;17.616;2024-03-02T00:56:50;6.10;99.90
56771;DHT22;42641;59.794;17.616;2024-03-02T00:59:17;6.20;99.90
56771;DHT22;42641;59.794;17.616;2024-03-02T01:01:44;6.20;99.90
56771;DHT22;42641;59.794;17.616;2024-03-02T01:04:10;6.20;99.90
56771;DHT22;42641;59.794;17.616;2024-03-02T01:06:36;6.10;99.90
56771;DHT22;42641;59.794;17.616;2024-03-02T01:09:03;6.20;99.90
56771;DHT22;42641;59.794;17.616;2024-03-02T01:11:30;6.20;99.90
56771;DHT22;42641;59.794;17.616;2024-03-02T01:13:56;6.20;99.90
56771;DHT22;42641;59.794;17.616;2024-03-02T01:16:23;6.20;99.90
56771;DHT22;42641;59.794;17.616;2024-03-02T01:18:49;6.20;99.90
56771;DHT22;42641;59.794;17.616;2024-03-02T01:21:16;6.20;99.90
56771;DHT22;42641;59.794;17.616;2024-03-02T01:23:42;6.20;99.90
56771;DHT22;42641;59.794;17.616;2024-03-02T01:26:09;6.20;99.90
56771;DHT22;42641;59.794;17.616;2024-03-02T01:28:35;6.20;99.90
56771;DHT22;42641;59.794;17.616;2024-03-02T01:31:02;6.20;99.90
56771;DHT22;42641;59.794;17.616;2024-03-02T01:33:28;6.10;99.90
56771;DHT22;42641;59.794;17.616;2024-03-02T01:35:55;6.20;99.90
56771;DHT22;42641;59.794;17.616;2024-03-02T01:38:21;6.20;99.90
56771;DHT22;42641;59.794;17.616;2024-03-02T01:40:48;6.20;99.90
56771;DHT22;42641;59.794;17.616;2024-03-02T01:43:14;6.20;99.90
56771;DHT22;42641;59.794;17.616;2024-03-02T01:45:41;6.20;99.90
56771;DHT22;42641;59.794;17.616;2024-03-02T01:48:07;6.20;99.90
56771;DHT22;42641;59.794;17.616;2024-03-02T01:50:34;6.20;99.90
56771;DHT22;42641;59.794;17.616;2024-03-02T01:53:01;6.20;99.90
56771;DHT22;42641;59.794;17.616;2024-03-02T01:55:30;6.20;99.90
56771;DHT22;42641;59.794;17.616;2024-03-02T01:57:57;6.20;99.90
56771;DHT22;42641;59.794;17.616;2024-03-02T02:00:24;6.10;99.90
56771;DHT22;42641;59.794;17.616;2024-03-02T02:02:52;6.20;99.90
56771;DHT22;42641;59.794;17.616;2024-03-02T02:05:19;6.10;99.90
56771;DHT22;42641;59.794;17.616;2024-03-02T02:07:45;6.20;99.90
56771;DHT22;42641;59.794;17.616;2024-03-02T02:10:12;6.20;99.90
56771;DHT22;42641;59.794;17.616;2024-03-02T02:12:38;6.20;99.90
56771;DHT22;42641;59.794;17.616;2024-03-02T02:15:28;6.20;99.90
56771;DHT22;42641;59.794;17.616;2024-03-02T02:17:55;6.20;99.90
56771;DHT22;42641;59.794;17.616;2024-03-02T02:20:24;6.20;99.90
56771;DHT22;42641;59.794;17.616;2024-03-02T02:23:01;6.10;99.90
56771;DHT22;42641;59.794;17.616;2024-03-02T02:25:29;6.10;99.90
56771;DHT22;42641;59.794;17.616;2024-03-02T02:27:56;6.10;99.90
56771;DHT22;42641;59.794;17.616;2024-03-02T02:30:28;6.10;99.90
56771;DHT22;42641;59.794;17.616;2024-03-02T02:32:56;6.10;99.90
56771;DHT22;42641;59.794;17.616;2024-03-02T02:35:23;6.10;99.90
56771;DHT22;42641;59.794;17.616;2024-03-02T02:37:54;6.20;99.90
56771;DHT22;42641;59.794;17.616;2024-03-02T02:40:21;6.10;99.90
56771;DHT22;42641;59.794;17.616;2024-03-02T02:42:48;6.10;99.90
56771;DHT22;42641;59.794;17.616;2024-03-02T02:45:15;6.10;99.90
56771;DHT22;42641;59.794;17.616;2024-03-02T02:47:42;6.10;99.90
56771;DHT22;42641;59.794;17.616;2024-03-02T02:50:09;6.10;99.90
56771;DHT22;42641;59.794;17.616;2024-03-02T02:52:36;6.10;99.90
56771;DHT22;42641;59.794;17.616;2024-03-02T02:55:07;6.10;99.90
56771;DHT22;42641;59.794;17.616;2024-03-02T02:57:34;6.10;99.90
56771;DHT22;42641;59.794;17.616;2024-03-02T03:00:04;6.00;99.90
56771;DHT22;42641;59.794;17.616;2024-03-02T03:02:31;6.00;99.90
56771;DHT22;42641;59.794;17.616;2024-03-02T03:04:58;6.00;99.90
56771;DHT22;42641;59.794;17.616;2024-03-02T03:07:24;6.00;99.90
56771;DHT22;42641;59.794;17.616;2024-03-02T03:09:53;6.00;99.90
56771;DHT22;42641;59.794;17.616;2024-03-02T03:12:19;6.00;99.90
56771;DHT22;42641;59.794;17.616;2024-03-02T03:14:46;6.00;99.90
56771;DHT22;42641;59.794;17.616;2024-03-02T03:17:12;6.00;99.90
56771;DHT22;42641;59.794;17.616;2024-03-02T03:19:38;6.00;99.90
56771;DHT22;42641;59.794;17.616;2024-03-02T03:22:05;6.00;99.90
56771;DHT22;42641;59.794;17.616;2024-03-02T03:24:31;6.00;99.90
56771;DHT22;42641;59.794;17.616;2024-03-02T03:26:59;6.00;99.90
56771;DHT22;42641;59.794;17.616;2024-03-02T03:29:25;6.00;99.90
56771;DHT22;42641;59.794;17.616;2024-03-02T03:31:51;5.90;99.90
56771;DHT22;42641;59.794;17.616;2024-03-02T03:34:19;6.00;99.90
56771;DHT22;42641;59.794;17.616;2024-03-02T03:36:45;5.90;99.90
56771;DHT22;42641;59.794;17.616;2024-03-02T03:39:12;5.90;99.90
56771;DHT22;42641;59.794;17.616;2024-03-02T03:41:40;5.90;99.90
56771;DHT22;42641;59.794;17.616;2024-03-02T03:44:06;5.90;99.90
56771;DHT22;42641;59.794;17.616;2024-03-02T03:46:33;5.90;99.90
56771;DHT22;42641;59.794;17.616;2024-03-02T03:48:59;5.90;99.90
56771;DHT22;42641;59.794;17.616;2024-03-02T03:51:25;5.90;99.90
56771;DHT22;42641;59.794;17.616;2024-03-02T03:53:52;5.90;99.90
56771;DHT22;42641;59.794;17.616;2024-03-02T03:56:18;5.90;99.90
56771;DHT22;42641;59.794;17.616;2024-03-02T03:58:45;5.80;99.90
56771;DHT22;42641;59.794;17.616;2024-03-02T04:01:11;5.80;99.90
56771;DHT22;42641;59.794;17.616;2024-03-02T04:03:38;5.80;99.90
56771;DHT22;42641;59.794;17.616;2024-03-02T04:06:04;5.80;99.90
56771;DHT22;42641;59.794;17.616;2024-03-02T04:08:31;5.80;99.90
56771;DHT22;42641;59.794;17.616;2024-03-02T04:10:57;5.80;99.90
56771;DHT22;42641;59.794;17.616;2024-03-02T04:13:24;5.70;99.90
56771;DHT22;42641;59.794;17.616;2024-03-02T04:15:50;5.70;99.90
56771;DHT22;42641;59.794;17.616;2024-03-02T04:18:16;5.70;99.90
56771;DHT22;42641;59.794;17.616;2024-03-02T04:20:43;5.70;99.90
56771;DHT22;42641;59.794;17.616;2024-03-02T04:23:09;5.70;99.90
56771;DHT22;42641;59.794;17.616;2024-03-02T04:25:35;5.70;99.90
56771;DHT22;42641;59.794;17.616;2024-03-02T04:28:02;5.60;99.90
56771;DHT22;42641;59.794;17.616;2024-03-02T04:30:28;5.70;99.90
56771;DHT22;42641;59.794;17.616;2024-03-02T04:32:55;5.70;99.90
56771;DHT22;42641;59.794;17.616;2024-03-02T04:35:22;5.60;99.90
56771;DHT22;42641;59.794;17.616;2024-03-02T04:37:51;5.60;99.90
56771;DHT22;42641;59.794;17.616;2024-03-02T04:40:17;5.60;99.90
56771;DHT22;42641;59.794;17.616;2024-03-02T04:42:44;5.60;99.90
56771;DHT22;42641;59.794;17.616;2024-03-02T04:45:10;5.60;99.90
56771;DHT22;42641;59.794;17.616;2024-03-02T04:47:36;5.60;99.90
56771;DHT22;42641;59.794;17.616;2024-03-02T04:50:03;5.60;99.90
56771;DHT22;42641;59.794;17.616;2024-03-02T04:52:29;5.60;99.90
56771;DHT22;42641;59.794;17.616;2024-03-02T04:54:56;5.60;99.90
56771;DHT22;42641;59.794;17.616;2024-03-02T04:57:45;5.50;99.90
56771;DHT22;42641;59.794;17.616;2024-03-02T05:00:13;5.50;99.90
56771;DHT22;42641;59.794;17.616;2024-03-02T05:02:40;5.60;99.90
56771;DHT22;42641;59.794;17.616;2024-03-02T05:05:06;5.50;99.90
56771;DHT22;42641;59.794;17.616;2024-03-02T05:07:33;5.50;99.90
56771;DHT22;42641;59.794;17.616;2024-03-02T05:09:59;5.40;99.90
56771;DHT22;42641;59.794;17.616;2024-03-02T05:12:25;5.50;99.90
56771;DHT22;42641;59.794;17.616;2024-03-02T05:14:58;5.40;99.90
56771;DHT22;42641;59.794;17.616;2024-03-02T05:17:24;5.40;99.90
56771;DHT22;42641;59.794;17.616;2024-03-02T05:19:50;5.40;99.90
56771;DHT22;42641;59.794;17.616;2024-03-02T05:22:17;5.40;99.90
56771;DHT22;42641;59.794;17.616;2024-03-02T05:24:43;5.40;99.90
56771;DHT22;42641;59.794;17.616;2024-03-02T05:27:09;5.40;99.90
56771;DHT22;42641;59.794;17.616;2024-03-02T05:29:36;5.40;99.90
56771;DHT22;42641;59.794;17.616;2024-03-02T05:32:02;5.40;99.90
56771;DHT22;42641;59.794;17.616;2024-03-02T05:34:28;5.40;99.90
56771;DHT22;42641;59.794;17.616;2024-03-02T05:36:56;5.40;99.90
56771;DHT22;42641;59.794;17.616;2024-03-02T05:39:23;5.40;99.90
56771;DHT22;42641;59.794;17.616;2024-03-02T05:41:50;5.40;99.90
56771;DHT22;42641;59.794;17.616;2024-03-02T05:44:16;5.50;99.90
56771;DHT22;42641;59.794;17.616;2024-03-02T05:46:43;5.40;99.90
56771;DHT22;42641;59.794;17.616;2024-03-02T05:49:09;5.40;99.90
56771;DHT22;42641;59.794;17.616;2024-03-02T05:51:36;5.40;99.90
56771;DHT22;42641;59.794;17.616;2024-03-02T05:54:02;5.40;99.90
56771;DHT22;42641;59.794;17.616;2024-03-02T05:56:29;5.40;99.90
56771;DHT22;42641;59.794;17.616;2024-03-02T05:58:55;5.40;99.90
56771;DHT22;42641;59.794;17.616;2024-03-02T06:01:41;5.40;99.90
56771;DHT22;42641;59.794;17.616;2024-03-02T06:04:12;5.40;99.90
56771;DHT22;42641;59.794;17.616;2024-03-02T06:06:42;5.40;99.90
56771;DHT22;42641;59.794;17.616;2024-03-02T06:09:08;5.40;99.90
56771;DHT22;42641;59.794;17.616;2024-03-02T06:11:35;5.40;99.90
56771;DHT22;42641;59.794;17.616;2024-03-02T06:14:03;5.40;99.90
56771;DHT22;42641;59.794;17.616;2024-03-02T06:16:30;5.40;99.90
56771;DHT22;42641;59.794;17.616;2024-03-02T06:18:56;5.50;99.90
56771;DHT22;42641;59.794;17.616;2024-03-02T06:21:24;5.50;99.90
56771;DHT22;42641;59.794;17.616;2024-03-02T06:23:51;5.50;99.90
56771;DHT22;42641;59.794;17.616;2024-03-02T06:26:17;5.50;99.90
56771;DHT22;42641;59.794;17.616;2024-03-02T06:28:44;5.50;99.90
56771;DHT22;42641;59.794;17.616;2024-03-02T06:31:11;5.60;99.90
56771;DHT22;42641;59.794;17.616;2024-03-02T06:33:37;5.50;99.90
56771;DHT22;42641;59.794;17.616;2024-03-02T06:36:04;5.60;99.90
56771;DHT22;42641;59.794;17.616;2024-03-02T06:38:31;5.60;99.90
56771;DHT22;42641;59.794;17.616;2024-03-02T06:41:00;5.60;99.90
56771;DHT22;42641;59.794;17.616;2024-03-02T06:43:26;5.50;99.90
56771;DHT22;42641;59.794;17.616;2024-03-02T06:45:52;5.60;99.90
56771;DHT22;42641;59.794;17.616;2024-03-02T06:48:19;5.60;99.90
56771;DHT22;42641;59.794;17.616;2024-03-02T06:50:49;5.60;99.90
56771;DHT22;42641;59.794;17.616;2024-03-02T06:53:16;5.60;99.90
56771;DHT22;42641;59.794;17.616;2024-03-02T06:55:44;5.60;99.90
56771;DHT22;42641;59.794;17.616;2024-03-02T06:58:14;5.60;99.90
56771;DHT22;42641;59.794;17.616;2024-03-02T07:00:44;5.70;99.90
56771;DHT22;42641;59.794;17.616;2024-03-02T07:03:11;5.70;99.90
56771;DHT22;42641;59.794;17.616;2024-03-02T07:05:38;5.80;99.90
56771;DHT22;42641;59.794;17.616;2024-03-02T07:08:05;5.70;99.90
56771;DHT22;42641;59.794;17.616;2024-03-02T07:10:32;5.80;99.90
56771;DHT22;42641;59.794;17.616;2024-03-02T07:12:58;5.90;99.90
56771;DHT22;42641;59.794;17.616;2024-03-02T07:15:24;5.80;99.90
56771;DHT22;42641;59.794;17.616;2024-03-02T07:18:06;5.80;99.90
56771;DHT22;42641;59.794;17.616;2024-03-02T07:20:33;5.90;99.90
56771;DHT22;42641;59.794;17.616;2024-03-02T07:23:00;6.00;99.90
56771;DHT22;42641;59.794;17.616;2024-03-02T07:25:27;6.00;99.90
56771;DHT22;42641;59.794;17.616;2024-03-02T07:27:53;6.10;99.90
56771;DHT22;42641;59.794;17.616;2024-03-02T07:30:20;6.10;99.90
56771;DHT22;42641;59.794;17.616;2024-03-02T07:32:46;6.10;99.90
56771;DHT22;42641;59.794;17.616;2024-03-02T07:35:13;6.00;99.90
56771;DHT22;42641;59.794;17.616;2024-03-02T07:37:41;6.00;99.90
56771;DHT22;42641;59.794;17.616;2024-03-02T07:40:09;6.10;99.90
56771;DHT22;42641;59.794;17.616;2024-03-02T07:42:40;6.10;99.90
56771;DHT22;42641;59.794;17.616;2024-03-02T07:45:07;6.20;99.90
56771;DHT22;42641;59.794;17.616;2024-03-02T07:47:34;6.20;99.90
56771;DHT22;42641;59.794;17.616;2024-03-02T07:50:01;6.30;99.90
56771;DHT22;42641;59.794;17.616;2024-03-02T07:52:27;6.30;99.90
56771;DHT22;42641;59.794;17.616;2024-03-02T07:54:54;6.30;99.90
56771;DHT22;42641;59.794;17.616;2024-03-02T07:57:21;6.30;99.90
56771;DHT22;42641;59.794;17.616;2024-03-02T07:59:48;6.30;99.90
56771;DHT22;42641;59.794;17.616;2024-03-02T08:02:15;6.20;99.90
56771;DHT22;42641;59.794;17.616;2024-03-02T08:04:41;6.30;99.90
56771;DHT22;42641;59.794;17.616;2024-03-02T08:07:09;6.30;99.90
56771;DHT22;42641;59.794;17.616;2024-03-02T08:09:35;6.40;99.90
56771;DHT22;42641;59.794;17.616;2024-03-02T08:12:02;6.40;99.90
56771;DHT22;42641;59.794;17.616;2024-03-02T08:14:29;6.40;99.90
56771;DHT22;42641;59.794;17.616;2024-03-02T08:16:55;6.40;99.90
56771;DHT22;42641;59.794;17.616;2024-03-02T08:19:25;6.40;99.90
56771;DHT22;42641;59.794;17.616;2024-03-02T08:21:51;6.50;99.90
56771;DHT22;42641;59.794;17.616;2024-03-02T08:24:18;6.60;99.90
56771;DHT22;42641;59.794;17.616;2024-03-02T08:26:45;6.70;99.90
56771;DHT22;42641;59.794;17.616;2024-03-02T08:29:12;6.70;99.90
56771;DHT22;42641;59.794;17.616;2024-03-02T08:31:39;6.70;99.90
56771;DHT22;42641;59.794;17.616;2024-03-02T08:34:08;6.70;99.90
56771;DHT22;42641;59.794;17.616;2024-03-02T08:36:37;6.60;99.90
56771;DHT22;42641;59.794;17.616;2024-03-02T08:39:04;6.60;99.90
56771;DHT22;42641;59.794;17.616;2024-03-02T08:41:36;6.70;99.90
56771;DHT22;42641;59.794;17.616;2024-03-02T08:44:05;6.70;99.90
56771;DHT22;42641;59.794;17.616;2024-03-02T08:46:31;6.70;99.90
56771;DHT22;42641;59.794;17.616;2024-03-02T08:48:57;6.70;99.90
56771;DHT22;42641;59.794;17.616;2024-03-02T08:51:24;6.70;99.90
56771;DHT22;42641;59.794;17.616;2024-03-02T08:53:50;6.70;99.90
56771;DHT22;42641;59.794;17.616;2024-03-02T08:56:16;6.80;99.90
56771;DHT22;42641;59.794;17.616;2024-03-02T08:58:43;6.80;99.90
56771;DHT22;42641;59.794;17.616;2024-03-02T09:01:10;6.80;99.90
56771;DHT22;42641;59.794;17.616;2024-03-02T09:03:37;6.80;99.90
56771;DHT22;42641;59.794;17.616;2024-03-02T09:06:04;6.80;99.90
56771;DHT22;42641;59.794;17.616;2024-03-02T09:08:30;6.80;99.90
56771;DHT22;42641;59.794;17.616;2024-03-02T09:10:56;6.80;99.90
56771;DHT22;42641;59.794;17.616;2024-03-02T09:13:23;6.80;99.90
56771;DHT22;42641;59.794;17.616;2024-03-02T09:15:50;6.90;99.90
56771;DHT22;42641;59.794;17.616;2024-03-02T09:18:16;6.90;99.90
56771;DHT22;42641;59.794;17.616;2024-03-02T09:20:43;6.90;99.90
56771;DHT22;42641;59.794;17.616;2024-03-02T09:23:09;6.90;99.90
56771;DHT22;42641;59.794;17.616;2024-03-02T09:25:35;6.90;99.90
56771;DHT22;42641;59.794;17.616;2024-03-02T09:28:03;6.80;99.90
56771;DHT22;42641;59.794;17.616;2024-03-02T09:30:30;6.80;99.90
56771;DHT22;42641;59.794;17.616;2024-03-02T09:32:56;6.90;99.90
56771;DHT22;42641;59.794;17.616;2024-03-02T09:35:22;6.90;99.90
56771;DHT22;42641;59.794;17.616;2024-03-02T09:37:49;6.90;99.90
56771;DHT22;42641;59.794;17.616;2024-03-02T09:40:15;6.90;99.90
56771;DHT22;42641;59.794;17.616;2024-03-02T09:42:42;6.90;99.90
56771;DHT22;42641;59.794;17.616;2024-03-02T09:45:09;7.00;99.90
56771;DHT22;42641;59.794;17.616;2024-03-02T09:47:36;7.00;99.90
56771;DHT22;42641;59.794;17.616;2024-03-02T09:50:03;7.00;99.90
56771;DHT22;42641;59.794;17.616;2024-03-02T09:52:30;7.00;99.90
56771;DHT22;42641;59.794;17.616;2024-03-02T09:54:57;7.00;99.90
56771;DHT22;42641;59.794;17.616;2024-03-02T09:57:23;7.00;99.90
56771;DHT22;42641;59.794;17.616;2024-03-02T09:59:50;7.00;99.90
56771;DHT22;42641;59.794;17.616;2024-03-02T10:02:16;7.00;99.90
56771;DHT22;42641;59.794;17.616;2024-03-02T10:04:43;7.00;99.90
56771;DHT22;42641;59.794;17.616;2024-03-02T10:07:12;7.10;99.90
56771;DHT22;42641;59.794;17.616;2024-03-02T10:09:40;7.10;99.90
56771;DHT22;42641;59.794;17.616;2024-03-02T10:12:08;7.10;99.90
56771;DHT22;42641;59.794;17.616;2024-03-02T10:14:35;7.20;99.90
56771;DHT22;42641;59.794;17.616;2024-03-02T10:17:07;7.30;99.90
56771;DHT22;42641;59.794;17.616;2024-03-02T10:19:34;7.40;99.90
56771;DHT22;42641;59.794;17.616;2024-03-02T10:22:02;7.50;99.90
56771;DHT22;42641;59.794;17.616;2024-03-02T10:24:44;7.60;99.90
56771;DHT22;42641;59.794;17.616;2024-03-02T10:27:27;7.60;99.90
56771;DHT22;42641;59.794;17.616;2024-03-02T10:29:53;7.60;99.90
56771;DHT22;42641;59.794;17.616;2024-03-02T10:32:22;7.60;99.90
56771;DHT22;42641;59.794;17.616;2024-03-02T10:34:50;7.70;99.90
56771;DHT22;42641;59.794;17.616;2024-03-02T10:37:16;7.70;99.90
56771;DHT22;42641;59.794;17.616;2024-03-02T10:39:48;7.60;99.90
56771;DHT22;42641;59.794;17.616;2024-03-02T10:42:16;7.70;99.90
56771;DHT22;42641;59.794;17.616;2024-03-02T10:44:43;7.70;99.90
56771;DHT22;42641;59.794;17.616;2024-03-02T10:47:12;7.80;99.90
56771;DHT22;42641;59.794;17.616;2024-03-02T10:49:41;7.70;99.90
56771;DHT22;42641;59.794;17.616;2024-03-02T10:52:09;7.70;99.90
56771;DHT22;42641;59.794;17.616;2024-03-02T10:54:35;7.70;99.90
56771;DHT22;42641;59.794;17.616;2024-03-02T10:57:07;7.70;99.90
56771;DHT22;42641;59.794;17.616;2024-03-02T10:59:36;7.70;99.90
56771;DHT22;42641;59.794;17.616;2024-03-02T11:02:06;7.60;99.90
56771;DHT22;42641;59.794;17.616;2024-03-02T11:04:37;7.50;99.90
56771;DHT22;42641;59.794;17.616;2024-03-02T11:07:08;7.50;99.90
56771;DHT22;42641;59.794;17.616;2024-03-02T11:09:41;7.60;99.90
56771;DHT22;42641;59.794;17.616;2024-03-02T11:12:30;7.60;99.90
56771;DHT22;42641;59.794;17.616;2024-03-02T11:14:58;7.70;99.90
56771;DHT22;42641;59.794;17.616;2024-03-02T11:17:25;7.60;99.90
56771;DHT22;42641;59.794;17.616;2024-03-02T11:19:52;7.60;99.90
56771;DHT22;42641;59.794;17.616;2024-03-02T11:22:19;7.60;99.90
56771;DHT22;42641;59.794;17.616;2024-03-02T11:24:51;7.70;99.90
56771;DHT22;42641;59.794;17.616;2024-03-02T11:33:11;7.80;99.90
56771;DHT22;42641;59.794;17.616;2024-03-02T11:35:42;7.80;99.90
56771;DHT22;42641;59.794;17.616;2024-03-02T11:38:10;7.80;99.90
56771;DHT22;42641;59.794;17.616;2024-03-02T11:40:39;7.80;99.90
56771;DHT22;42641;59.794;17.616;2024-03-02T11:43:06;7.90;99.90
56771;DHT22;42641;59.794;17.616;2024-03-02T11:45:35;8.00;99.90
56771;DHT22;42641;59.794;17.616;2024-03-02T11:48:06;8.20;99.90
56771;DHT22;42641;59.794;17.616;2024-03-02T11:50:36;8.20;99.90
56771;DHT22;42641;59.794;17.616;2024-03-02T11:53:08;8.10;99.90
56771;DHT22;42641;59.794;17.616;2024-03-02T11:55:36;8.20;99.90
56771;DHT22;42641;59.794;17.616;2024-03-02T11:58:06;8.20;99.90
56771;DHT22;42641;59.794;17.616;2024-03-02T12:00:33;8.10;99.90
56771;DHT22;42641;59.794;17.616;2024-03-02T12:03:01;8.10;99.90
56771;DHT22;42641;59.794;17.616;2024-03-02T12:05:28;8.10;99.90
56771;DHT22;42641;59.794;17.616;2024-03-02T12:08:00;8.10;99.90
56771;DHT22;42641;59.794;17.616;2024-03-02T12:10:27;8.20;99.90
56771;DHT22;42641;59.794;17.616;2024-03-02T12:12:57;8.10;99.90
56771;DHT22;42641;59.794;17.616;2024-03-02T12:15:27;8.10;99.90
56771;DHT22;42641;59.794;17.616;2024-03-02T12:17:55;8.10;99.90
56771;DHT22;42641;59.794;17.616;2024-03-02T12:20:22;8.10;99.90
56771;DHT22;42641;59.794;17.616;2024-03-02T12:22:53;8.20;99.90
56771;DHT22;42641;59.794;17.616;2024-03-02T12:25:23;8.20;99.90
56771;DHT22;42641;59.794;17.616;2024-03-02T12:27:52;8.40;99.90
56771;DHT22;42641;59.794;17.616;2024-03-02T12:30:20;8.40;99.90
56771;DHT22;42641;59.794;17.616;2024-03-02T12:32:47;8.30;99.90
56771;DHT22;42641;59.794;17.616;2024-03-02T12:35:14;8.30;99.90
56771;DHT22;42641;59.794;17.616;2024-03-02T12:37:45;8.20;99.90
56771;DHT22;42641;59.794;17.616;2024-03-02T12:40:13;8.20;99.90
56771;DHT22;42641;59.794;17.616;2024-03-02T12:42:40;8.20;99.90
56771;DHT22;42641;59.794;17.616;2024-03-02T12:45:08;8.20;99.90
56771;DHT22;42641;59.794;17.616;2024-03-02T12:47:35;8.20;99.90
56771;DHT22;42641;59.794;17.616;2024-03-02T12:50:03;8.20;99.90
56771;DHT22;42641;59.794;17.616;2024-03-02T12:52:30;8.20;99.90
56771;DHT22;42641;59.794;17.616;2024-03-02T12:54:59;8.10;99.90
56771;DHT22;42641;59.794;17.616;2024-03-02T12:57:27;8.00;99.90
56771;DHT22;42641;59.794;17.616;2024-03-02T13:00:05;8.00;99.90
56771;DHT22;42641;59.794;17.616;2024-03-02T13:02:42;8.00;99.90
56771;DHT22;42641;59.794;17.616;2024-03-02T13:05:09;8.00;99.90
56771;DHT22;42641;59.794;17.616;2024-03-02T13:07:40;8.10;99.90
56771;DHT22;42641;59.794;17.616;2024-03-02T13:10:07;8.10;99.90
56771;DHT22;42641;59.794;17.616;2024-03-02T13:12:35;8.00;99.90
56771;DHT22;42641;59.794;17.616;2024-03-02T13:15:03;8.00;99.90
56771;DHT22;42641;59.794;17.616;2024-03-02T13:17:30;8.00;99.90
56771;DHT22;42641;59.794;17.616;2024-03-02T13:19:57;8.10;99.90
56771;DHT22;42641;59.794;17.616;2024-03-02T13:22:24;8.20;99.90
56771;DHT22;42641;59.794;17.616;2024-03-02T13:24:51;8.20;99.90
56771;DHT22;42641;59.794;17.616;2024-03-02T13:27:20;8.00;99.90
56771;DHT22;42641;59.794;17.616;2024-03-02T13:29:47;8.00;99.90
56771;DHT22;42641;59.794;17.616;2024-03-02T13:32:19;7.90;99.90
56771;DHT22;42641;59.794;17.616;2024-03-02T13:34:49;7.80;99.90
56771;DHT22;42641;59.794;17.616;2024-03-02T13:37:16;7.80;99.90
56771;DHT22;42641;59.794;17.616;2024-03-02T13:39:42;7.70;99.90
56771;DHT22;42641;59.794;17.616;2024-03-02T13:42:10;7.70;99.90
56771;DHT22;42641;59.794;17.616;2024-03-02T13:44:37;7.70;99.90
56771;DHT22;42641;59.794;17.616;2024-03-02T13:47:04;7.60;99.90
56771;DHT22;42641;59.794;17.616;2024-03-02T13:49:31;7.60;99.90
56771;DHT22;42641;59.794;17.616;2024-03-02T13:52:06;7.60;99.90
56771;DHT22;42641;59.794;17.616;2024-03-02T13:54:44;7.50;99.90
56771;DHT22;42641;59.794;17.616;2024-03-02T13:57:12;7.50;99.90
56771;DHT22;42641;59.794;17.616;2024-03-02T13:59:39;7.50;99.90
56771;DHT22;42641;59.794;17.616;2024-03-02T14:02:06;7.50;99.90
56771;DHT22;42641;59.794;17.616;2024-03-02T14:04:34;7.50;99.90
56771;DHT22;42641;59.794;17.616;2024-03-02T14:07:01;7.40;99.90
56771;DHT22;42641;59.794;17.616;2024-03-02T14:09:28;7.30;99.90
56771;DHT22;42641;59.794;17.616;2024-03-02T14:11:55;7.20;99.90
56771;DHT22;42641;59.794;17.616;2024-03-02T14:14:21;7.10;99.90
56771;DHT22;42641;59.794;17.616;2024-03-02T14:16:49;7.10;99.90
56771;DHT22;42641;59.794;17.616;2024-03-02T14:19:15;7.10;99.90
56771;DHT22;42641;59.794;17.616;2024-03-02T14:21:41;7.00;99.90
56771;DHT22;42641;59.794;17.616;2024-03-02T14:24:08;7.00;99.90
56771;DHT22;42641;59.794;17.616;2024-03-02T14:26:36;7.00;99.90
56771;DHT22;42641;59.794;17.616;2024-03-02T14:29:03;7.00;99.90
56771;DHT22;42641;59.794;17.616;2024-03-02T14:31:30;7.00;99.90
56771;DHT22;42641;59.794;17.616;2024-03-02T14:33:57;7.00;99.90
56771;DHT22;42641;59.794;17.616;2024-03-02T14:36:24;6.90;99.90
56771;DHT22;42641;59.794;17.616;2024-03-02T14:38:50;7.00;99.90
56771;DHT22;42641;59.794;17.616;2024-03-02T14:41:17;7.00;99.90
56771;DHT22;42641;59.794;17.616;2024-03-02T14:43:43;6.90;99.90
56771;DHT22;42641;59.794;17.616;2024-03-02T14:46:10;6.90;99.90
56771;DHT22;42641;59.794;17.616;2024-03-02T14:48:37;6.90;99.90
56771;DHT22;42641;59.794;17.616;2024-03-02T14:51:04;6.90;99.90
56771;DHT22;42641;59.794;17.616;2024-03-02T14:53:33;6.80;99.90
56771;DHT22;42641;59.794;17.616;2024-03-02T14:55:59;6.80;99.90
56771;DHT22;42641;59.794;17.616;2024-03-02T14:58:26;6.80;99.90
56771;DHT22;42641;59.794;17.616;2024-03-02T15:00:52;6.70;99.90
56771;DHT22;42641;59.794;17.616;2024-03-02T15:03:19;6.70;99.90
56771;DHT22;42641;59.794;17.616;2024-03-02T15:05:45;6.60;99.90
56771;DHT22;42641;59.794;17.616;2024-03-02T15:08:12;6.50;99.90
56771;DHT22;42641;59.794;17.616;2024-03-02T15:10:38;6.50;99.90
56771;DHT22;42641;59.794;17.616;2024-03-02T15:13:05;6.50;99.90
56771;DHT22;42641;59.794;17.616;2024-03-02T15:15:31;6.50;99.90
56771;DHT22;42641;59.794;17.616;2024-03-02T15:17:58;6.60;99.90
56771;DHT22;42641;59.794;17.616;2024-03-02T15:20:25;6.50;99.90
56771;DHT22;42641;59.794;17.616;2024-03-02T15:22:51;6.50;99.90
56771;DHT22;42641;59.794;17.616;2024-03-02T15:25:17;6.60;99.90
56771;DHT22;42641;59.794;17.616;2024-03-02T15:27:44;6.50;99.90
56771;DHT22;42641;59.794;17.616;2024-03-02T15:30:10;6.60;99.90
56771;DHT22;42641;59.794;17.616;2024-03-02T15:32:37;6.60;99.90
56771;DHT22;42641;59.794;17.616;2024-03-02T15:35:05;6.50;99.90
56771;DHT22;42641;59.794;17.616;2024-03-02T15:37:32;6.50;99.90
56771;DHT22;42641;59.794;17.616;2024-03-02T15:39:58;6.50;99.90